Time;durP1;ratioP1;P1;durP2;ratioP2;P2;SDS_P1;SDS_P2;PMS_P1;PMS_P2;Temp;Humidity;BMP_temperature;BMP_pressure;BME280_temperature;BME280_humidity;BME280_pressure;Samples;Min_cycle;Max_cycle;Signal;HPM_P1;HPM_P2
2023/07/09 05:03:39;;;;;;;7.35;3.88;;;21.60;90.10;;;;;;4945039;23;20341;-76
2023/07/09 05:06:05;;;;;;;7.65;4.15;;;21.60;90.00;;;;;;4945512;29;20047;-76
2023/07/09 05:08:31;;;;;;;6.75;4.15;;;21.70;90.10;;;;;;4946799;29;20026;-75
2023/07/09 05:10:57;;;;;;;6.32;4.07;;;21.70;90.00;;;;;;4946049;29;20094;-76
2023/07/09 05:13:24;;;;;;;6.78;3.38;;;21.80;90.00;;;;;;4946232;29;20066;-77
2023/07/09 05:15:50;;;;;;;5.63;3.70;;;21.90;89.70;;;;;;4946069;29;20047;-78
2023/07/09 05:18:17;;;;;;;6.30;3.60;;;21.90;89.70;;;;;;4947013;29;20027;-76
2023/07/09 05:20:43;;;;;;;6.38;3.58;;;22.00;89.00;;;;;;4946440;29;20096;-76
2023/07/09 05:23:09;;;;;;;9.38;3.65;;;22.10;88.80;;;;;;4946926;29;20332;-77
2023/07/09 05:25:35;;;;;;;8.23;3.42;;;22.20;88.50;;;;;;4946153;29;20043;-78
2023/07/09 05:28:01;;;;;;;6.05;3.30;;;22.20;88.30;;;;;;4945646;29;20240;-77
2023/07/09 05:30:27;;;;;;;6.65;3.38;;;22.30;88.10;;;;;;4946628;29;20023;-76
2023/07/09 05:32:57;;;;;;;6.57;3.10;;;22.40;87.90;;;;;;4946275;29;20102;-75
2023/07/09 05:35:25;;;;;;;5.35;3.35;;;22.50;87.50;;;;;;4947511;29;20028;-75
2023/07/09 05:37:52;;;;;;;7.38;4.15;;;22.50;87.80;;;;;;4945764;29;20032;-76
2023/07/09 05:40:17;;;;;;;7.30;3.58;;;22.50;87.60;;;;;;4945149;29;20023;-76
2023/07/09 05:42:43;;;;;;;7.63;3.63;;;22.50;87.20;;;;;;4946053;29;20034;-76
2023/07/09 05:45:11;;;;;;;5.40;3.40;;;22.60;87.20;;;;;;4946160;29;20224;-76
2023/07/09 05:47:37;;;;;;;6.20;3.70;;;22.70;86.90;;;;;;4945186;29;20046;-75
2023/07/09 05:50:03;;;;;;;10.55;6.43;;;22.70;86.90;;;;;;4944740;29;20039;-75
2023/07/09 05:52:29;;;;;;;6.85;4.65;;;22.80;86.90;;;;;;4961272;29;20023;-76
2023/07/09 05:54:55;;;;;;;7.00;4.07;;;22.80;87.00;;;;;;4944489;29;20024;-75
2023/07/09 05:57:21;;;;;;;7.10;4.70;;;22.80;86.60;;;;;;4946154;29;20023;-76
2023/07/09 05:59:47;;;;;;;7.53;4.13;;;22.90;86.80;;;;;;4945729;29;20086;-77
2023/07/09 06:02:15;;;;;;;7.55;4.90;;;22.90;86.40;;;;;;4940471;29;20051;-75
2023/07/09 06:04:50;;;;;;;7.95;4.20;;;23.00;86.10;;;;;;4927612;29;20040;-76
2023/07/09 06:07:18;;;;;;;8.65;4.47;;;23.20;85.90;;;;;;4926442;29;20051;-76
2023/07/09 06:09:48;;;;;;;9.27;5.50;;;23.30;85.60;;;;;;4942092;29;20309;-76
2023/07/09 06:12:20;;;;;;;6.78;3.85;;;23.40;85.10;;;;;;4926657;29;20034;-76
2023/07/09 06:14:54;;;;;;;7.40;3.92;;;23.40;84.90;;;;;;4913017;29;20027;-76
2023/07/09 06:17:20;;;;;;;8.13;4.10;;;23.60;85.10;;;;;;4948921;29;20106;-77
2023/07/09 06:19:46;;;;;;;6.72;4.03;;;23.70;84.40;;;;;;4927528;29;20075;-78
2023/07/09 06:22:13;;;;;;;7.53;3.65;;;23.80;84.10;;;;;;4914537;29;20099;-76
2023/07/09 06:24:39;;;;;;;7.47;3.67;;;23.80;83.50;;;;;;4944019;29;20036;-78
2023/07/09 06:27:06;;;;;;;8.43;4.28;;;23.90;83.50;;;;;;4915342;29;20056;-76
2023/07/09 06:29:32;;;;;;;7.47;3.70;;;24.10;83.30;;;;;;4932445;29;20124;-76
2023/07/09 06:32:04;;;;;;;7.30;3.58;;;24.20;82.90;;;;;;4948170;29;20304;-77
2023/07/09 06:35:06;;;;;;;5.55;3.55;;;24.20;82.70;;;;;;4917053;29;20055;-76
2023/07/09 06:37:31;;;;;;;8.75;4.13;;;24.40;82.20;;;;;;4891352;29;20044;-76
2023/07/09 06:39:57;;;;;;;7.20;4.60;;;24.60;81.70;;;;;;4935936;29;20036;-75
2023/07/09 06:42:23;;;;;;;5.72;3.85;;;24.70;81.10;;;;;;4931289;29;20039;-77
2023/07/09 06:45:10;;;;;;;4.72;3.25;;;24.90;80.60;;;;;;4931263;29;20106;-75
2023/07/09 06:47:37;;;;;;;6.22;3.58;;;25.00;80.10;;;;;;4928667;29;20043;-77
2023/07/09 06:50:03;;;;;;;5.78;3.58;;;25.10;79.90;;;;;;4912866;29;20222;-77
2023/07/09 06:52:29;;;;;;;6.90;3.83;;;25.10;79.70;;;;;;4929164;29;20028;-77
2023/07/09 06:54:55;;;;;;;5.35;3.70;;;25.20;79.60;;;;;;4930081;29;20067;-77
2023/07/09 06:57:20;;;;;;;12.20;7.60;;;25.30;78.90;;;;;;4931258;29;20040;-77
2023/07/09 06:59:46;;;;;;;14.50;10.85;;;25.50;79.10;;;;;;4929838;29;20091;-75
2023/07/09 07:02:12;;;;;;;20.92;15.25;;;25.60;78.70;;;;;;4929142;29;20044;-77
2023/07/09 07:04:38;;;;;;;6.57;4.20;;;25.70;78.30;;;;;;4930915;29;20219;-76
2023/07/09 07:07:03;;;;;;;6.90;4.07;;;25.80;77.80;;;;;;4929242;29;20036;-77
2023/07/09 07:09:29;;;;;;;6.93;3.40;;;25.90;77.50;;;;;;4930381;29;20087;-76
2023/07/09 07:12:05;;;;;;;7.13;4.20;;;25.90;77.70;;;;;;4930027;29;20040;-77
2023/07/09 07:14:31;;;;;;;8.70;4.70;;;26.10;77.50;;;;;;4929508;29;20043;-76
2023/07/09 07:17:23;;;;;;;6.43;3.97;;;26.20;77.10;;;;;;4944775;29;20027;-77
2023/07/09 07:19:58;;;;;;;6.97;3.88;;;26.40;76.60;;;;;;4928936;29;20047;-79
2023/07/09 07:22:26;;;;;;;29.20;21.58;;;26.50;76.20;;;;;;4929342;29;20076;-79
2023/07/09 07:24:52;;;;;;;9.02;6.20;;;26.70;75.70;;;;;;4928826;29;20056;-74
2023/07/09 07:27:18;;;;;;;6.45;4.40;;;26.90;75.50;;;;;;4929137;29;20032;-76
2023/07/09 07:29:45;;;;;;;5.55;3.58;;;27.00;75.00;;;;;;4929288;29;20054;-74
2023/07/09 07:32:11;;;;;;;6.55;3.55;;;27.00;75.00;;;;;;4928919;29;20042;-76
2023/07/09 07:34:36;;;;;;;5.82;3.72;;;27.20;74.60;;;;;;4929260;29;20064;-73
2023/07/09 07:37:02;;;;;;;5.65;3.40;;;27.30;74.40;;;;;;4928468;29;20198;-79
2023/07/09 07:39:28;;;;;;;5.18;3.40;;;27.50;73.70;;;;;;4928512;29;20020;-77
2023/07/09 07:41:57;;;;;;;5.97;3.35;;;27.60;73.20;;;;;;4929039;29;20092;-78
2023/07/09 07:44:23;;;;;;;9.95;6.32;;;27.70;72.90;;;;;;4929370;29;20213;-80
2023/07/09 07:46:49;;;;;;;6.60;4.18;;;27.70;73.20;;;;;;4928520;29;20031;-79
2023/07/09 07:49:15;;;;;;;7.45;3.97;;;27.80;72.80;;;;;;4928567;29;20044;-77
2023/07/09 07:51:41;;;;;;;7.65;3.90;;;27.90;72.70;;;;;;4937462;29;20028;-76
2023/07/09 07:54:10;;;;;;;5.70;3.65;;;27.90;72.40;;;;;;4936097;29;20031;-78
2023/07/09 07:56:37;;;;;;;8.45;3.63;;;28.00;72.20;;;;;;4947956;29;20047;-77
2023/07/09 07:59:03;;;;;;;6.68;4.70;;;28.10;71.70;;;;;;4928970;29;20100;-79
2023/07/09 08:01:29;;;;;;;7.75;5.05;;;28.30;71.70;;;;;;4909469;29;20096;-79
2023/07/09 08:03:55;;;;;;;5.63;3.30;;;28.40;71.00;;;;;;4946034;29;20217;-77
2023/07/09 08:06:21;;;;;;;5.97;3.65;;;28.50;71.20;;;;;;4926491;29;20226;-84
2023/07/09 08:08:47;;;;;;;8.82;3.70;;;28.60;70.70;;;;;;4928598;29;20038;-77
2023/07/09 08:11:18;;;;;;;6.90;4.00;;;28.70;70.60;;;;;;4928498;29;20020;-79
2023/07/09 08:13:44;;;;;;;10.85;3.78;;;28.70;70.30;;;;;;4911891;29;20217;-78
2023/07/09 08:16:13;;;;;;;5.78;3.20;;;28.80;70.60;;;;;;4928205;29;20032;-80
2023/07/09 08:18:38;;;;;;;6.63;4.70;;;28.90;70.10;;;;;;4928877;29;20032;-78
2023/07/09 08:21:05;;;;;;;6.82;4.20;;;29.00;69.50;;;;;;4927987;29;20032;-78
2023/07/09 08:23:30;;;;;;;5.88;3.78;;;29.00;69.10;;;;;;4930800;29;20012;-78
2023/07/09 08:26:39;;;;;;;5.32;3.55;;;29.10;69.10;;;;;;4947118;29;20075;-78
2023/07/09 08:29:05;;;;;;;7.05;3.50;;;29.30;68.50;;;;;;4945751;29;20035;-73
2023/07/09 08:31:31;;;;;;;6.50;3.47;;;29.40;68.10;;;;;;4947026;29;20050;-74
2023/07/09 08:33:56;;;;;;;6.40;3.65;;;29.50;67.60;;;;;;4946285;29;20028;-73
2023/07/09 08:36:23;;;;;;;8.30;3.47;;;29.50;67.10;;;;;;4947173;29;20182;-75
2023/07/09 08:38:49;;;;;;;5.00;3.13;;;29.60;67.00;;;;;;4947002;29;20032;-74
2023/07/09 08:41:41;;;;;;;6.90;3.50;;;29.70;66.10;;;;;;4946487;29;20094;-72
2023/07/09 08:44:18;;;;;;;7.70;3.80;;;29.80;65.80;;;;;;4943595;29;20039;-72
2023/07/09 08:46:53;;;;;;;5.85;3.10;;;29.80;65.50;;;;;;4946701;29;20035;-74
2023/07/09 08:49:23;;;;;;;6.28;3.17;;;30.00;65.50;;;;;;4942993;29;20023;-72
2023/07/09 08:51:50;;;;;;;4.93;3.22;;;30.10;65.70;;;;;;4927578;29;20063;-73
2023/07/09 08:54:39;;;;;;;6.65;3.00;;;30.20;65.20;;;;;;4927167;29;20039;-73
2023/07/09 08:57:27;;;;;;;6.60;3.00;;;30.30;64.20;;;;;;4927326;29;20329;-73
2023/07/09 09:00:28;;;;;;;5.57;3.10;;;30.40;63.80;;;;;;4945898;29;20031;-73
2023/07/09 09:03:00;;;;;;;7.03;3.30;;;30.50;63.90;;;;;;4930528;29;20341;-73
2023/07/09 09:05:26;;;;;;;5.93;3.40;;;30.70;64.30;;;;;;4946440;29;20066;-73
2023/07/09 09:07:57;;;;;;;5.50;3.13;;;30.70;63.90;;;;;;4946290;29;20039;-74
2023/07/09 09:10:31;;;;;;;4.65;2.90;;;30.80;64.10;;;;;;4946557;29;20087;-77
2023/07/09 09:13:15;;;;;;;8.45;3.53;;;30.90;63.50;;;;;;4946254;29;20043;-76
2023/07/09 09:15:45;;;;;;;6.72;3.15;;;31.00;63.50;;;;;;4946680;29;20203;-75
2023/07/09 09:18:17;;;;;;;5.57;3.33;;;31.00;63.30;;;;;;4945677;29;20034;-75
2023/07/09 09:20:45;;;;;;;5.93;2.85;;;31.10;62.90;;;;;;4946303;29;20023;-75
2023/07/09 09:23:16;;;;;;;6.25;2.85;;;31.10;62.60;;;;;;4945933;29;20336;-73
2023/07/09 09:25:51;;;;;;;4.82;2.97;;;31.30;62.60;;;;;;4946119;29;20040;-76
2023/07/09 09:28:17;;;;;;;6.13;3.17;;;31.30;62.30;;;;;;4945721;29;20040;-73
2023/07/09 09:30:42;;;;;;;13.15;7.93;;;31.30;62.00;;;;;;4946222;29;20205;-73
2023/07/09 09:33:11;;;;;;;6.32;3.40;;;31.40;62.10;;;;;;4945634;29;20294;-74
2023/07/09 09:35:47;;;;;;;7.15;3.30;;;31.50;61.80;;;;;;4945839;29;20040;-72
2023/07/09 09:38:21;;;;;;;7.50;3.13;;;31.50;61.20;;;;;;4945367;29;20258;-73
2023/07/09 09:40:47;;;;;;;7.07;3.05;;;31.60;60.70;;;;;;4946161;29;20027;-73
2023/07/09 09:43:19;;;;;;;5.40;2.90;;;31.70;60.80;;;;;;4945171;29;20020;-75
2023/07/09 09:45:48;;;;;;;7.20;3.28;;;31.80;60.00;;;;;;4945646;29;20073;-72
2023/07/09 09:48:32;;;;;;;7.93;4.72;;;31.90;59.90;;;;;;4945522;29;20038;-73
2023/07/09 09:51:01;;;;;;;6.13;3.17;;;32.00;59.10;;;;;;4928819;29;20314;-73
2023/07/09 09:53:28;;;;;;;5.22;3.05;;;32.10;59.10;;;;;;4926629;29;20020;-74
2023/07/09 09:55:59;;;;;;;8.05;5.25;;;32.20;59.30;;;;;;4926822;29;20040;-72
2023/07/09 09:58:29;;;;;;;6.13;2.83;;;32.30;58.70;;;;;;4937580;29;20083;-73
2023/07/09 10:00:58;;;;;;;6.85;3.10;;;32.40;58.40;;;;;;4945057;29;20220;-75
2023/07/09 10:03:35;;;;;;;6.50;3.72;;;32.50;57.30;;;;;;4945309;29;20121;-75
2023/07/09 10:06:20;;;;;;;6.65;3.35;;;32.50;57.80;;;;;;4945174;29;20251;-73
2023/07/09 10:09:10;;;;;;;6.85;3.58;;;32.70;57.60;;;;;;4944258;29;20265;-73
2023/07/09 10:12:03;;;;;;;13.40;10.65;;;32.80;56.60;;;;;;4944651;29;20031;-75
2023/07/09 10:14:40;;;;;;;6.25;3.13;;;32.90;56.30;;;;;;4945144;29;20047;-75
2023/07/09 10:17:22;;;;;;;5.82;4.03;;;33.00;55.70;;;;;;4928471;29;20040;-75
2023/07/09 10:20:15;;;;;;;5.13;3.08;;;33.00;54.70;;;;;;4944541;29;20028;-77
2023/07/09 10:22:59;;;;;;;5.95;3.00;;;33.00;53.70;;;;;;4945391;29;20127;-74
2023/07/09 10:25:49;;;;;;;4.97;2.33;;;33.00;54.30;;;;;;4945126;29;20036;-72
2023/07/09 10:28:42;;;;;;;4.15;2.30;;;33.10;53.40;;;;;;4943572;29;20044;-74
2023/07/09 10:31:31;;;;;;;9.32;6.47;;;33.10;53.40;;;;;;4944896;29;20330;-72
2023/07/09 10:34:28;;;;;;;8.27;3.67;;;33.30;53.70;;;;;;4935637;29;20016;-73
2023/07/09 10:37:07;;;;;;;5.28;2.63;;;33.30;53.40;;;;;;4928322;29;20162;-75
2023/07/09 10:39:38;;;;;;;7.47;3.42;;;33.50;51.80;;;;;;4942712;29;20099;-76
2023/07/09 10:42:21;;;;;;;4.00;2.47;;;33.50;50.60;;;;;;4936431;29;20043;-75
2023/07/09 10:45:03;;;;;;;5.30;2.17;;;33.60;51.70;;;;;;4925009;29;20047;-74
2023/07/09 10:47:36;;;;;;;4.82;2.55;;;33.70;52.60;;;;;;4926530;29;20103;-73
2023/07/09 10:50:05;;;;;;;5.15;2.35;;;33.70;52.20;;;;;;4930121;29;20036;-74
2023/07/09 10:52:39;;;;;;;5.25;2.60;;;33.70;52.20;;;;;;4926229;29;20044;-74
2023/07/09 10:55:26;;;;;;;6.18;2.47;;;33.80;52.20;;;;;;4924645;29;20048;-74
2023/07/09 10:58:17;;;;;;;5.53;2.35;;;33.80;50.90;;;;;;4931696;29;20036;-75
2023/07/09 11:00:43;;;;;;;5.82;2.80;;;34.00;51.30;;;;;;4944951;29;20032;-73
2023/07/09 11:03:18;;;;;;;6.30;2.55;;;34.10;50.60;;;;;;4943922;29;20055;-74
2023/07/09 11:05:45;;;;;;;8.02;2.90;;;34.10;50.90;;;;;;4944860;29;20075;-74
2023/07/09 11:08:20;;;;;;;6.20;2.50;;;34.20;51.20;;;;;;4931976;29;20027;-74
2023/07/09 11:10:57;;;;;;;4.25;2.55;;;34.30;50.50;;;;;;4926316;29;20024;-74
2023/07/09 11:13:31;;;;;;;4.60;2.33;;;34.40;50.60;;;;;;4928126;29;20063;-75
2023/07/09 11:15:58;;;;;;;5.55;2.63;;;34.60;50.30;;;;;;4929463;29;20162;-74
2023/07/09 11:18:27;;;;;;;6.20;2.67;;;34.70;50.00;;;;;;4912238;29;20044;-75
2023/07/09 11:21:15;;;;;;;5.70;2.80;;;34.80;49.70;;;;;;4929242;29;20655;-74
2023/07/09 11:23:46;;;;;;;5.68;3.22;;;34.90;50.10;;;;;;4929440;29;20044;-74
2023/07/09 11:26:22;;;;;;;6.32;3.13;;;35.00;49.40;;;;;;4928511;29;20071;-74
2023/07/09 11:28:52;;;;;;;6.00;2.60;;;35.00;48.90;;;;;;4928529;29;20032;-75
2023/07/09 11:31:31;;;;;;;5.30;2.85;;;35.30;48.00;;;;;;4927608;29;20191;-75
2023/07/09 11:34:10;;;;;;;6.07;2.88;;;35.70;48.50;;;;;;4928883;29;20314;-74
2023/07/09 11:36:48;;;;;;;6.30;2.83;;;35.90;48.20;;;;;;4929231;29;20047;-73
2023/07/09 11:39:39;;;;;;;6.82;5.38;;;36.20;47.80;;;;;;4928589;29;20096;-72
2023/07/09 11:42:29;;;;;;;7.53;3.22;;;36.50;47.40;;;;;;4921025;29;20243;-73
2023/07/09 11:45:06;;;;;;;5.25;2.90;;;37.10;47.30;;;;;;4942554;29;20266;-71
2023/07/09 11:47:40;;;;;;;10.30;5.97;;;37.70;46.50;;;;;;4929217;29;20025;-74
2023/07/09 11:50:25;;;;;;;5.57;2.78;;;38.40;45.80;;;;;;4928497;29;20281;-75
2023/07/09 11:52:55;;;;;;;6.45;2.83;;;39.00;45.00;;;;;;4928888;29;20307;-77
2023/07/09 11:55:29;;;;;;;4.75;2.95;;;40.10;44.50;;;;;;4928727;29;20059;-77
2023/07/09 11:58:01;;;;;;;6.78;2.97;;;40.80;43.70;;;;;;4932628;29;20024;-76
2023/07/09 12:00:34;;;;;;;5.82;3.00;;;41.40;42.40;;;;;;4928042;29;20036;-78
2023/07/09 12:03:00;;;;;;;9.20;3.38;;;42.00;42.20;;;;;;4928076;29;20048;-75
2023/07/09 12:05:28;;;;;;;5.32;2.85;;;42.70;41.20;;;;;;4927863;29;20036;-74
2023/07/09 12:07:58;;;;;;;4.28;2.60;;;43.70;41.40;;;;;;4928185;29;20024;-77
2023/07/09 12:10:28;;;;;;;6.68;3.35;;;44.10;40.30;;;;;;4927037;29;20246;-76
2023/07/09 12:12:58;;;;;;;4.90;2.85;;;44.70;40.20;;;;;;4928246;29;20031;-78
2023/07/09 12:15:29;;;;;;;6.43;3.10;;;45.40;40.60;;;;;;4927654;29;20065;-79
2023/07/09 12:18:04;;;;;;;5.57;2.90;;;45.30;39.50;;;;;;4911691;29;20056;-76
2023/07/09 12:20:41;;;;;;;5.47;2.80;;;45.20;39.90;;;;;;4943009;29;20274;-77
2023/07/09 12:23:16;;;;;;;5.82;3.10;;;45.90;39.10;;;;;;4927797;29;20047;-83
2023/07/09 12:25:51;;;;;;;9.80;8.70;;;46.50;38.60;;;;;;4928151;29;20034;-74
2023/07/09 12:28:17;;;;;;;6.82;3.42;;;46.30;38.60;;;;;;4926315;29;20043;-81
2023/07/09 12:30:47;;;;;;;5.35;2.92;;;46.20;38.70;;;;;;4927907;29;20072;-80
2023/07/09 12:33:17;;;;;;;4.35;2.70;;;46.70;38.90;;;;;;4910796;29;20036;-75
2023/07/09 12:35:49;;;;;;;6.15;2.83;;;47.10;38.30;;;;;;4909183;29;20112;-81
2023/07/09 12:38:20;;;;;;;6.05;2.78;;;47.80;37.00;;;;;;4908655;29;20040;-79
2023/07/09 12:40:47;;;;;;;4.95;2.70;;;46.70;36.90;;;;;;4908941;29;20043;-77
2023/07/09 12:43:13;;;;;;;4.68;2.65;;;46.80;37.50;;;;;;4922324;29;20207;-75
2023/07/09 12:45:39;;;;;;;5.82;3.25;;;47.90;36.90;;;;;;4926759;29;20032;-75
2023/07/09 12:48:07;;;;;;;7.10;2.70;;;47.80;37.00;;;;;;4927449;29;20024;-77
2023/07/09 12:50:37;;;;;;;8.80;4.90;;;48.30;36.70;;;;;;4927596;29;20028;-79
2023/07/09 12:53:14;;;;;;;5.43;2.80;;;49.10;36.30;;;;;;4927283;29;20036;-77
2023/07/09 12:55:41;;;;;;;5.93;3.72;;;48.30;36.70;;;;;;4927422;29;20107;-76
2023/07/09 12:58:11;;;;;;;7.78;2.90;;;48.50;36.50;;;;;;4935701;29;20023;-77
2023/07/09 13:00:37;;;;;;;6.88;3.33;;;48.80;36.90;;;;;;4946641;29;20027;-77
2023/07/09 13:03:11;;;;;;;5.40;2.92;;;49.50;36.00;;;;;;4945344;29;20387;-76
2023/07/09 13:05:37;;;;;;;4.07;2.95;;;49.70;36.40;;;;;;4927605;29;20036;-77
2023/07/09 13:08:03;;;;;;;5.05;3.00;;;51.00;35.60;;;;;;4927582;29;20059;-77
2023/07/09 13:10:31;;;;;;;5.07;3.33;;;51.70;35.70;;;;;;4927032;29;20120;-77
2023/07/09 13:13:01;;;;;;;6.18;3.45;;;52.10;35.50;;;;;;4927065;29;20291;-76
2023/07/09 13:15:31;;;;;;;5.38;3.00;;;52.50;35.20;;;;;;4926309;29;20115;-77
2023/07/09 13:18:04;;;;;;;4.78;3.10;;;51.90;34.90;;;;;;4923158;29;20295;-77
2023/07/09 13:20:31;;;;;;;7.30;3.53;;;52.60;35.20;;;;;;4907784;29;20028;-77
2023/07/09 13:22:58;;;;;;;5.25;3.17;;;52.90;34.60;;;;;;4908139;29;20032;-76
2023/07/09 13:25:24;;;;;;;6.50;3.00;;;53.10;34.60;;;;;;4908022;29;20028;-76
2023/07/09 13:27:50;;;;;;;4.90;2.78;;;53.60;33.90;;;;;;4907315;29;20028;-77
2023/07/09 13:30:16;;;;;;;4.13;2.83;;;54.40;33.20;;;;;;4907516;29;20028;-75
2023/07/09 13:32:42;;;;;;;5.53;2.88;;;53.90;33.00;;;;;;4906946;29;20027;-75
2023/07/09 13:35:17;;;;;;;4.57;2.28;;;53.30;33.50;;;;;;4921549;29;20060;-78
2023/07/09 13:37:44;;;;;;;4.53;2.67;;;53.30;33.20;;;;;;4926909;29;20028;-81
2023/07/09 13:40:13;;;;;;;5.45;2.50;;;52.60;33.80;;;;;;4937703;29;20032;-73
2023/07/09 13:42:41;;;;;;;5.05;2.08;;;51.60;32.70;;;;;;4907620;29;20036;-73
2023/07/09 13:45:26;;;;;;;3.97;2.60;;;51.00;33.50;;;;;;4907822;29;20044;-75
2023/07/09 13:47:52;;;;;;;6.23;2.10;;;51.90;33.20;;;;;;4907851;29;20037;-75
2023/07/09 13:50:19;;;;;;;5.93;2.70;;;52.30;32.60;;;;;;4919821;29;20024;-76
2023/07/09 13:52:46;;;;;;;7.45;2.50;;;52.20;33.30;;;;;;4927057;29;20036;-76
2023/07/09 13:55:23;;;;;;;5.40;2.30;;;52.10;32.70;;;;;;4925356;29;20246;-73
2023/07/09 13:57:50;;;;;;;4.40;2.08;;;52.30;33.00;;;;;;4933035;29;20036;-74
2023/07/09 14:00:17;;;;;;;5.45;2.38;;;52.80;32.80;;;;;;4941449;29;20043;-73
2023/07/09 14:02:43;;;;;;;6.80;2.42;;;52.60;32.50;;;;;;4926220;29;20334;-73
2023/07/09 14:05:12;;;;;;;5.82;2.40;;;52.50;33.70;;;;;;4926498;29;20234;-75
2023/07/09 14:07:41;;;;;;;5.13;2.67;;;53.30;33.10;;;;;;4926437;29;20318;-74
2023/07/09 14:10:12;;;;;;;4.53;2.83;;;53.40;33.20;;;;;;4926190;29;20258;-76
2023/07/09 14:12:42;;;;;;;7.32;5.25;;;53.10;34.20;;;;;;4926515;29;20199;-75
2023/07/09 14:15:18;;;;;;;6.20;4.85;;;54.60;33.70;;;;;;4926577;29;20048;-75
2023/07/09 14:17:44;;;;;;;7.80;5.72;;;55.90;33.40;;;;;;4926535;29;20036;-75
2023/07/09 14:20:12;;;;;;;5.95;3.30;;;55.30;33.40;;;;;;4925719;29;20051;-75
2023/07/09 14:22:42;;;;;;;8.25;4.00;;;54.90;33.60;;;;;;4926164;29;20040;-75
2023/07/09 14:25:17;;;;;;;6.45;3.15;;;53.50;33.90;;;;;;4926358;29;20229;-75
2023/07/09 14:27:43;;;;;;;4.03;2.43;;;51.10;35.00;;;;;;4926544;29;20043;-76
2023/07/09 14:30:14;;;;;;;4.88;2.60;;;50.40;35.00;;;;;;4926776;29;20631;-76
2023/07/09 14:32:44;;;;;;;4.22;2.50;;;48.90;35.30;;;;;;4926645;29;20067;-75
2023/07/09 14:35:19;;;;;;;5.53;2.60;;;47.10;36.00;;;;;;4941018;29;20152;-75
2023/07/09 14:37:48;;;;;;;6.55;2.90;;;45.90;37.40;;;;;;4939442;29;20036;-75
2023/07/09 14:40:15;;;;;;;5.47;2.35;;;45.40;37.60;;;;;;4925872;29;20038;-73
2023/07/09 14:42:42;;;;;;;8.23;2.40;;;44.60;37.80;;;;;;4926009;29;20079;-76
2023/07/09 14:45:19;;;;;;;;;;;45.50;38.40;;;;;;4926861;29;20040;-75
2023/07/09 14:47:44;;;;;;;4.90;2.47;;;47.90;37.30;;;;;;4928162;29;19907;-75
2023/07/09 14:50:11;;;;;;;3.97;2.37;;;49.30;36.00;;;;;;4929619;29;20087;-76
2023/07/09 14:52:42;;;;;;;6.07;2.33;;;50.30;35.40;;;;;;4929073;29;20047;-75
2023/07/09 14:55:15;;;;;;;4.90;2.70;;;50.90;35.10;;;;;;4929379;29;20051;-75
2023/07/09 14:57:41;;;;;;;6.53;2.63;;;50.20;35.50;;;;;;4928247;29;20088;-76
2023/07/09 15:00:11;;;;;;;4.78;2.47;;;51.50;35.30;;;;;;4929925;29;20028;-75
2023/07/09 15:02:40;;;;;;;5.25;2.58;;;51.70;35.10;;;;;;4928948;29;20044;-74
2023/07/09 15:05:19;;;;;;;6.15;2.60;;;51.70;35.10;;;;;;4929512;29;20039;-75
2023/07/09 15:07:45;;;;;;;4.38;2.58;;;52.80;34.60;;;;;;4929050;29;20059;-75
2023/07/09 15:10:22;;;;;;;3.40;2.45;;;52.10;34.60;;;;;;4944289;29;20027;-74
2023/07/09 15:12:48;;;;;;;4.13;2.30;;;51.80;34.10;;;;;;4929426;29;20032;-74
2023/07/09 15:15:22;;;;;;;;;;;52.80;34.30;;;;;;4929400;29;20230;-75
2023/07/09 15:17:48;;;;;;;4.43;3.08;;;53.10;33.80;;;;;;4929271;29;19973;-76
2023/07/09 15:20:16;;;;;;;6.35;2.67;;;53.80;34.20;;;;;;4928546;29;20348;-75
2023/07/09 15:22:43;;;;;;;4.55;2.15;;;53.00;33.70;;;;;;4929169;29;20040;-74
2023/07/09 15:25:19;;;;;;;5.05;2.13;;;51.30;33.40;;;;;;4929505;29;20091;-75
2023/07/09 15:27:45;;;;;;;2.97;2.10;;;49.80;34.00;;;;;;4929365;29;20028;-75
2023/07/09 15:30:24;;;;;;;3.70;2.25;;;48.60;35.30;;;;;;4928025;29;20052;-74
2023/07/09 15:32:50;;;;;;;4.53;2.30;;;47.80;35.20;;;;;;4944037;29;20083;-75
2023/07/09 15:35:19;;;;;;;5.18;2.17;;;45.60;35.80;;;;;;4944172;29;20039;-76
2023/07/09 15:37:48;;;;;;;4.00;2.40;;;45.20;36.70;;;;;;4948029;29;20030;-75
2023/07/09 15:40:19;;;;;;;4.63;2.60;;;44.20;37.00;;;;;;4948105;29;20024;-76
2023/07/09 15:42:47;;;;;;;6.70;2.67;;;43.90;37.30;;;;;;4947847;29;20352;-76
2023/07/09 15:45:15;;;;;;;3.70;2.45;;;43.70;37.70;;;;;;4947808;29;20095;-76
2023/07/09 15:47:42;;;;;;;5.75;2.15;;;44.10;38.00;;;;;;4946944;29;20036;-75
2023/07/09 15:50:18;;;;;;;5.07;2.30;;;44.20;37.70;;;;;;4928674;29;20046;-75
2023/07/09 15:52:45;;;;;;;4.93;2.25;;;44.10;37.40;;;;;;4928842;29;20028;-76
2023/07/09 15:55:16;;;;;;;4.68;3.40;;;44.50;37.40;;;;;;4928558;29;20112;-74
2023/07/09 15:57:43;;;;;;;6.57;5.57;;;44.70;37.10;;;;;;4928038;29;20059;-75
2023/07/09 16:00:13;;;;;;;;;;;44.70;36.90;;;;;;4929082;29;20091;-77
2023/07/09 16:02:39;;;;;;;5.32;2.40;;;44.50;37.10;;;;;;4927135;29;19922;-74
2023/07/09 16:05:17;;;;;;;3.83;1.98;;;44.70;36.80;;;;;;4928721;29;20040;-75
2023/07/09 16:07:43;;;;;;;6.53;2.40;;;44.20;37.10;;;;;;4928826;29;20028;-76
2023/07/09 16:10:09;;;;;;;4.20;1.98;;;43.90;37.20;;;;;;4928463;29;20034;-75
2023/07/09 16:12:34;;;;;;;5.22;2.33;;;43.80;37.20;;;;;;4942896;29;20349;-76
2023/07/09 16:15:00;;;;;;;3.42;2.10;;;44.00;37.10;;;;;;4928513;29;20074;-76
2023/07/09 16:17:26;;;;;;;5.50;2.20;;;43.20;37.90;;;;;;4927701;29;20051;-76
2023/07/09 16:19:51;;;;;;;7.80;6.60;;;43.10;37.30;;;;;;4928487;29;20027;-76
2023/07/09 16:22:19;;;;;;;5.13;2.78;;;42.50;38.10;;;;;;4928018;29;20038;-76
2023/07/09 16:24:45;;;;;;;6.00;3.65;;;41.70;38.40;;;;;;4928122;29;20274;-75
2023/07/09 16:27:15;;;;;;;4.55;2.63;;;41.60;38.90;;;;;;4928135;29;20024;-76
2023/07/09 16:29:41;;;;;;;5.20;2.58;;;41.20;39.10;;;;;;4928015;29;20332;-75
2023/07/09 16:32:08;;;;;;;5.13;2.75;;;40.80;39.40;;;;;;4928289;29;20056;-75
2023/07/09 16:34:34;;;;;;;4.45;2.38;;;40.30;39.30;;;;;;4937398;29;20041;-76
2023/07/09 16:37:00;;;;;;;5.97;2.80;;;40.00;39.70;;;;;;4947192;29;20036;-76
2023/07/09 16:39:26;;;;;;;4.90;2.17;;;39.90;40.00;;;;;;4946688;29;20036;-76
2023/07/09 16:41:54;;;;;;;3.67;2.08;;;39.60;40.00;;;;;;4947137;29;20305;-76
2023/07/09 16:44:20;;;;;;;5.75;2.50;;;39.40;40.30;;;;;;4946555;29;20265;-75
2023/07/09 16:46:48;;;;;;;6.80;2.20;;;39.40;40.50;;;;;;4945658;29;20023;-76
2023/07/09 16:49:23;;;;;;;;;;;39.20;40.80;;;;;;4930199;29;20106;-75
2023/07/09 16:51:49;;;;;;;4.80;2.20;;;39.20;41.10;;;;;;4946500;29;19913;-75
2023/07/09 16:54:14;;;;;;;4.97;2.45;;;39.10;40.90;;;;;;4945631;29;20218;-76
2023/07/09 16:56:41;;;;;;;5.32;2.45;;;38.90;41.10;;;;;;4929593;29;20088;-76
2023/07/09 16:59:10;;;;;;;6.78;2.65;;;38.80;41.20;;;;;;4927692;29;20076;-76
2023/07/09 17:01:36;;;;;;;5.57;2.42;;;38.70;41.00;;;;;;4926848;29;20054;-75
2023/07/09 17:04:28;;;;;;;5.55;2.85;;;38.50;41.10;;;;;;4927501;29;20362;-77
2023/07/09 17:06:55;;;;;;;5.47;2.55;;;38.60;41.80;;;;;;4927076;29;20048;-75
2023/07/09 17:09:21;;;;;;;5.80;2.47;;;38.60;41.60;;;;;;4925415;29;20330;-75
2023/07/09 17:11:57;;;;;;;4.95;2.33;;;38.50;41.70;;;;;;4927502;29;20052;-81
2023/07/09 17:14:23;;;;;;;5.90;2.97;;;38.20;41.80;;;;;;4926769;29;20043;-76
2023/07/09 17:16:50;;;;;;;6.22;2.85;;;38.30;42.00;;;;;;4927275;29;20221;-76
2023/07/09 17:19:16;;;;;;;4.82;2.22;;;38.20;42.10;;;;;;4927329;29;20032;-75
2023/07/09 17:21:46;;;;;;;6.68;3.22;;;38.20;41.70;;;;;;4926469;29;20044;-75
2023/07/09 17:24:41;;;;;;;5.28;3.53;;;38.60;41.70;;;;;;4927115;29;20210;-75
2023/07/09 17:27:09;;;;;;;7.78;2.70;;;40.60;40.50;;;;;;4926782;29;20051;-74
2023/07/09 17:29:35;;;;;;;5.70;3.58;;;42.20;39.20;;;;;;4926548;29;20020;-75
2023/07/09 17:32:00;;;;;;;7.15;5.07;;;43.30;38.30;;;;;;4927274;29;20076;-75
2023/07/09 17:34:26;;;;;;;7.05;5.10;;;44.00;38.20;;;;;;4935328;29;20043;-73
2023/07/09 17:36:52;;;;;;;4.75;2.38;;;44.60;37.60;;;;;;4945938;29;20046;-73
2023/07/09 17:39:22;;;;;;;4.75;2.35;;;44.40;37.20;;;;;;4946076;29;20043;-75
2023/07/09 17:41:49;;;;;;;3.45;1.90;;;43.50;37.90;;;;;;4946433;29;20321;-75
2023/07/09 17:44:20;;;;;;;4.80;2.75;;;42.20;39.20;;;;;;4946308;29;20051;-75
2023/07/09 17:46:47;;;;;;;10.88;9.77;;;40.90;39.40;;;;;;4945253;29;20046;-76
2023/07/09 17:49:20;;;;;;;7.30;4.25;;;39.80;40.80;;;;;;4945849;29;20035;-78
2023/07/09 17:51:46;;;;;;;6.40;2.97;;;39.10;41.00;;;;;;4944893;29;20222;-78
2023/07/09 17:54:17;;;;;;;5.10;2.50;;;38.70;41.70;;;;;;4945822;29;20028;-74
2023/07/09 17:56:44;;;;;;;5.78;2.83;;;38.30;41.80;;;;;;4944214;29;20317;-75
2023/07/09 17:59:19;;;;;;;8.00;3.15;;;38.00;42.20;;;;;;4947647;29;20062;-74
2023/07/09 18:01:57;;;;;;;6.28;2.47;;;37.90;42.60;;;;;;4944755;29;20094;-75
2023/07/09 18:04:22;;;;;;;7.15;2.47;;;38.10;42.00;;;;;;4944600;29;20047;-76
2023/07/09 18:06:50;;;;;;;4.95;2.50;;;38.20;42.10;;;;;;4945270;29;20035;-75
2023/07/09 18:09:20;;;;;;;5.38;2.40;;;38.00;42.20;;;;;;4929846;29;20024;-76